createdAt,value
2018-09-15T00:07:20.868Z,227.00
2018-09-15T00:17:20.892Z,256.49
2018-09-15T00:27:20.841Z,199.10
2018-09-15T00:37:20.930Z,163.51
2018-09-15T00:47:21.719Z,243.31
2018-09-15T00:57:20.940Z,237.07
2018-09-15T01:07:20.907Z,248.33
2018-09-15T01:17:20.804Z,219.62
2018-09-15T01:27:20.881Z,198.65
2018-09-15T01:37:20.846Z,227.41
2018-09-15T01:47:20.877Z,257.09
2018-09-15T01:57:21.021Z,216.42
2018-09-15T02:07:20.883Z,233.05
2018-09-15T02:17:20.862Z,248.79
2018-09-15T02:27:20.795Z,217.31
2018-09-15T02:37:20.905Z,241.18
2018-09-15T02:47:20.813Z,247.60
2018-09-15T02:57:20.852Z,235.93
2018-09-15T03:07:21.084Z,243.18
2018-09-15T03:17:20.907Z,235.83
2018-09-15T03:27:20.937Z,211.48
2018-09-15T03:37:20.836Z,229.65
2018-09-15T03:47:20.789Z,253.06
2018-09-15T03:57:20.932Z,255.17
2018-09-15T04:07:20.821Z,235.77
2018-09-15T04:17:20.827Z,218.16
2018-09-15T04:27:20.800Z,246.18
2018-09-15T04:37:20.735Z,223.19
2018-09-15T04:47:20.793Z,241.85
2018-09-15T04:57:20.861Z,222.58
2018-09-15T05:07:20.814Z,250.07
2018-09-15T05:17:20.902Z,278.04
2018-09-15T05:27:20.902Z,246.68
2018-09-15T05:37:20.896Z,226.34
2018-09-15T05:47:20.858Z,261.34
2018-09-15T05:57:20.901Z,259.59
2018-09-15T06:07:20.822Z,274.78
2018-09-15T06:17:20.886Z,242.36
2018-09-15T06:27:20.948Z,245.41
2018-09-15T06:37:21.921Z,217.78
2018-09-15T06:47:20.851Z,234.85
2018-09-15T06:57:20.814Z,241.63
2018-09-15T07:07:20.821Z,237.97
2018-09-15T07:17:20.848Z,226.11
2018-09-15T07:27:20.909Z,279.19
2018-09-15T07:37:20.896Z,256.17
2018-09-15T07:47:20.999Z,236.19
2018-09-15T07:57:20.849Z,257.44
2018-09-15T08:07:20.879Z,235.75
2018-09-15T08:17:20.813Z,298.28
2018-09-15T08:27:20.802Z,252.60
2018-09-15T08:37:20.796Z,255.31
2018-09-15T08:47:20.788Z,212.31
2018-09-15T08:57:20.805Z,250.18
2018-09-15T09:07:20.864Z,245.96
2018-09-15T09:17:20.925Z,221.65
2018-09-15T09:27:20.715Z,243.56
2018-09-15T09:37:20.821Z,261.13
2018-09-15T09:47:20.880Z,226.80
2018-09-15T09:57:20.897Z,172.36
2018-09-15T10:07:20.818Z,165.95
2018-09-15T10:17:20.869Z,203.04
2018-09-15T10:27:21.682Z,176.54
2018-09-15T10:37:20.925Z,95.31
2018-09-15T10:47:20.886Z,247.71
2018-09-15T10:57:20.973Z,247.88
2018-09-15T11:07:20.858Z,239.64
2018-09-15T11:17:20.928Z,130.97
2018-09-15T11:27:20.832Z,270.61
2018-09-15T11:37:20.893Z,257.65
2018-09-15T11:47:21.040Z,269.37
2018-09-15T11:57:20.797Z,207.58
2018-09-15T12:07:20.844Z,154.61
2018-09-15T12:17:20.939Z,222.53
2018-09-15T12:27:20.832Z,174.57
2018-09-15T12:37:20.881Z,257.23
2018-09-15T12:47:20.886Z,111.74
2018-09-15T12:57:20.875Z,247.80
2018-09-15T13:07:21.042Z,226.18
2018-09-15T13:17:21.022Z,211.92
2018-09-15T13:27:20.947Z,125.32
2018-09-15T13:37:20.972Z,164.99
2018-09-15T13:47:20.917Z,286.44
2018-09-15T13:57:20.895Z,155.50
2018-09-15T14:07:20.852Z,134.15
2018-09-15T14:17:20.839Z,173.81
2018-09-15T14:27:21.150Z,117.17
2018-09-15T14:37:21.013Z,115.60
2018-09-15T14:47:24.750Z,98.74
2018-09-15T14:57:20.915Z,143.44
2018-09-15T15:07:20.936Z,177.63
2018-09-15T15:17:20.939Z,183.94
2018-09-15T15:27:21.007Z,179.91
2018-09-15T15:37:20.988Z,209.39
2018-09-15T15:47:20.960Z,156.20
2018-09-15T15:57:20.916Z,194.62
2018-09-15T16:07:21.076Z,225.00
2018-09-15T16:17:21.242Z,225.00
2018-09-15T16:27:21.313Z,225.00
2018-09-15T16:37:21.034Z,199.28
2018-09-15T16:47:21.798Z,180.00
2018-09-15T16:57:20.949Z,180.00
2018-09-15T17:07:20.972Z,180.00
2018-09-15T17:17:20.977Z,180.00
2018-09-15T17:27:21.111Z,180.00
2018-09-15T17:37:20.955Z,180.00
2018-09-15T17:47:21.044Z,180.00
2018-09-15T17:57:20.980Z,180.00
2018-09-15T18:07:21.008Z,180.00
2018-09-15T18:17:21.963Z,180.00
2018-09-15T18:27:20.991Z,180.00
2018-09-15T18:37:21.189Z,180.00
2018-09-15T18:47:21.063Z,180.00
2018-09-15T18:57:22.524Z,159.58
2018-09-15T19:07:21.021Z,135.00
2018-09-15T19:17:21.001Z,135.00
2018-09-15T19:27:20.979Z,135.00
2018-09-15T19:37:21.031Z,135.00
2018-09-15T19:47:21.036Z,135.00
2018-09-15T19:57:20.936Z,135.00
2018-09-15T20:07:20.975Z,135.00
2018-09-15T20:17:21.004Z,135.00
2018-09-15T20:27:20.982Z,135.00
2018-09-15T20:37:21.062Z,135.00
2018-09-15T20:47:20.923Z,135.00
2018-09-15T20:57:21.190Z,135.00
2018-09-15T21:07:21.020Z,135.00
2018-09-15T21:17:21.020Z,135.00
2018-09-15T21:27:21.028Z,135.00
2018-09-15T21:37:21.032Z,135.00
2018-09-15T21:47:21.029Z,135.00
2018-09-15T21:57:20.957Z,135.00
2018-09-15T22:07:20.925Z,135.00
2018-09-15T22:17:20.963Z,135.00
2018-09-15T22:27:21.041Z,135.00
2018-09-15T22:37:21.072Z,135.00
2018-09-15T22:47:21.655Z,135.00
2018-09-15T22:57:21.003Z,135.00
2018-09-15T23:07:20.954Z,135.00
2018-09-15T23:17:20.969Z,135.00
2018-09-15T23:27:20.988Z,135.00
2018-09-15T23:37:21.059Z,135.00
2018-09-15T23:47:20.925Z,135.00
2018-09-15T23:57:21.064Z,135.00
